Time;durP1;ratioP1;P1;durP2;ratioP2;P2;SDS_P1;SDS_P2;PMS_P1;PMS_P2;Temp;Humidity;BMP_temperature;BMP_pressure;BME280_temperature;BME280_humidity;BME280_pressure;Samples;Min_cycle;Max_cycle;Signal;HPM_P1;HPM_P2
2022/01/03 00:04:53;;;;;;;6.72;1.98;;;11.90;96.50;;;;;;4926393;29;20043;-80
2022/01/03 00:07:20;;;;;;;5.00;1.40;;;12.00;96.50;;;;;;4931114;29;20166;-79
2022/01/03 00:09:48;;;;;;;5.90;1.60;;;12.00;96.60;;;;;;4931571;29;20118;-80
2022/01/03 00:12:15;;;;;;;3.58;1.38;;;12.00;96.50;;;;;;4931481;29;20087;-80
2022/01/03 00:14:43;;;;;;;6.28;1.40;;;12.00;96.40;;;;;;4931592;29;20054;-80
2022/01/03 00:17:10;;;;;;;4.97;1.48;;;12.00;96.30;;;;;;4931164;29;20159;-80
2022/01/03 00:19:37;;;;;;;4.05;1.17;;;12.10;96.30;;;;;;4931347;29;20142;-80
2022/01/03 00:22:13;;;;;;;6.07;1.30;;;12.10;96.30;;;;;;4931156;29;20477;-80
2022/01/03 00:24:46;;;;;;;4.60;1.38;;;12.10;96.30;;;;;;4931090;29;20107;-80
2022/01/03 00:27:17;;;;;;;5.25;1.60;;;12.10;96.20;;;;;;4922063;29;20051;-79
2022/01/03 00:29:48;;;;;;;4.78;1.25;;;12.10;96.30;;;;;;4920139;29;20139;-79
2022/01/03 00:32:15;;;;;;;4.40;1.40;;;12.10;96.20;;;;;;4921006;29;20212;-80
2022/01/03 00:34:43;;;;;;;4.90;1.27;;;12.10;96.20;;;;;;4920339;29;20071;-80
2022/01/03 00:37:12;;;;;;;5.13;1.30;;;12.10;96.10;;;;;;4920392;29;20164;-79
2022/01/03 00:39:39;;;;;;;4.65;1.33;;;12.10;96.00;;;;;;4925252;29;20044;-80
2022/01/03 00:42:07;;;;;;;4.47;1.40;;;12.20;96.00;;;;;;4920127;29;20044;-81
2022/01/03 00:44:34;;;;;;;5.30;1.40;;;12.20;95.90;;;;;;4920156;29;20462;-80
2022/01/03 00:47:01;;;;;;;4.78;1.40;;;12.20;95.80;;;;;;4919641;29;20058;-80
2022/01/03 00:49:30;;;;;;;5.05;1.30;;;12.20;95.80;;;;;;4927134;29;20056;-82
2022/01/03 00:51:57;;;;;;;5.60;1.35;;;12.20;95.80;;;;;;4925661;29;20052;-80
2022/01/03 00:54:25;;;;;;;6.60;1.58;;;12.20;95.70;;;;;;4920328;29;20052;-79
2022/01/03 00:56:54;;;;;;;5.10;1.48;;;12.20;95.70;;;;;;4920014;29;20072;-81
2022/01/03 00:59:27;;;;;;;4.30;1.30;;;12.20;95.60;;;;;;4923396;29;20087;-81
2022/01/03 01:01:55;;;;;;;5.05;1.25;;;12.20;95.60;;;;;;4924050;29;20044;-81
2022/01/03 01:04:24;;;;;;;5.15;1.73;;;12.20;95.50;;;;;;4930269;29;20052;-81
2022/01/03 01:06:55;;;;;;;5.78;1.30;;;12.20;95.80;;;;;;4929095;29;20060;-80
2022/01/03 01:09:26;;;;;;;4.47;1.40;;;12.20;95.50;;;;;;4924375;29;20047;-81
2022/01/03 01:11:56;;;;;;;7.22;1.60;;;12.20;95.50;;;;;;4928180;29;20131;-81
2022/01/03 01:14:26;;;;;;;5.15;1.30;;;12.20;95.40;;;;;;4934550;29;20130;-81
2022/01/03 01:16:54;;;;;;;5.28;1.58;;;12.20;95.30;;;;;;4934592;29;20054;-83
2022/01/03 01:19:22;;;;;;;5.82;1.30;;;12.30;95.50;;;;;;4934442;29;20519;-83
2022/01/03 01:21:50;;;;;;;3.97;1.35;;;12.20;95.20;;;;;;4934433;29;20388;-84
2022/01/03 01:24:20;;;;;;;7.45;1.55;;;12.20;95.20;;;;;;4934050;29;20063;-83
2022/01/03 01:29:36;;;;;;;6.28;1.40;;;12.30;95.00;;;;;;4928066;29;20078;-83
2022/01/03 01:32:06;;;;;;;5.85;1.27;;;12.30;95.00;;;;;;4916993;29;20058;-82
2022/01/03 01:34:36;;;;;;;4.20;1.08;;;12.30;95.00;;;;;;4927514;29;20505;-83
2022/01/03 01:37:03;;;;;;;4.95;1.42;;;12.30;95.00;;;;;;4934202;29;20062;-83
2022/01/03 01:39:31;;;;;;;5.40;1.50;;;12.20;95.30;;;;;;4931126;29;20086;-82
2022/01/03 01:42:03;;;;;;;7.07;1.60;;;12.20;95.20;;;;;;4934157;29;20139;-82
2022/01/03 01:44:35;;;;;;;4.18;1.00;;;12.20;94.90;;;;;;4926717;29;20095;-82
2022/01/03 01:47:06;;;;;;;4.50;1.23;;;12.30;94.80;;;;;;4933517;29;20056;-81
2022/01/03 01:49:40;;;;;;;3.63;1.25;;;12.30;94.80;;;;;;4927917;29;20054;-82
2022/01/03 01:52:17;;;;;;;7.65;1.65;;;12.30;94.70;;;;;;4934471;29;20043;-82
2022/01/03 01:54:56;;;;;;;8.80;1.52;;;12.30;94.60;;;;;;4934874;29;20087;-83
2022/01/03 01:57:40;;;;;;;4.35;1.25;;;12.30;94.50;;;;;;4934085;29;20128;-81
2022/01/03 02:00:13;;;;;;;5.88;1.20;;;12.30;94.40;;;;;;4934137;29;20043;-82
2022/01/03 02:02:54;;;;;;;4.00;1.13;;;12.30;94.40;;;;;;4934298;29;20044;-82
2022/01/03 02:05:28;;;;;;;6.35;1.40;;;12.30;94.50;;;;;;4933578;29;20661;-82
2022/01/03 02:08:05;;;;;;;6.45;1.40;;;12.30;94.50;;;;;;4934305;29;20047;-83
2022/01/03 02:10:39;;;;;;;8.95;1.38;;;12.30;94.30;;;;;;4927370;29;20051;-82
2022/01/03 02:13:08;;;;;;;7.75;1.70;;;12.40;94.40;;;;;;4933788;29;20054;-83
2022/01/03 02:15:37;;;;;;;6.22;1.50;;;12.40;94.40;;;;;;4934053;29;20577;-83
2022/01/03 02:18:06;;;;;;;5.72;1.50;;;12.40;94.50;;;;;;4933792;29;20044;-82
2022/01/03 02:20:34;;;;;;;4.63;1.60;;;12.40;94.50;;;;;;4934033;29;20130;-83
2022/01/03 02:23:03;;;;;;;5.30;1.40;;;12.40;94.80;;;;;;4933786;29;20050;-83
2022/01/03 02:25:30;;;;;;;4.72;1.20;;;12.40;94.60;;;;;;4926988;29;20047;-83
2022/01/03 02:27:59;;;;;;;5.15;1.40;;;12.30;94.60;;;;;;4933763;29;20079;-82
2022/01/03 02:30:30;;;;;;;4.65;1.38;;;12.30;94.70;;;;;;4933774;29;20076;-82
2022/01/03 02:32:57;;;;;;;4.25;1.02;;;12.30;94.80;;;;;;4933733;29;20050;-82
2022/01/03 02:35:24;;;;;;;4.78;1.30;;;12.30;94.90;;;;;;4933565;29;20056;-81
2022/01/03 02:37:54;;;;;;;6.25;1.30;;;12.30;95.00;;;;;;4932670;29;20070;-82
2022/01/03 02:40:22;;;;;;;4.40;1.23;;;12.30;95.20;;;;;;4933162;29;20055;-81
2022/01/03 02:42:50;;;;;;;3.92;1.20;;;12.30;95.30;;;;;;4933412;29;20046;-81
2022/01/03 02:45:21;;;;;;;4.28;1.20;;;12.30;95.40;;;;;;4933427;29;20494;-82
2022/01/03 02:47:50;;;;;;;5.43;1.45;;;12.20;95.60;;;;;;4933817;29;20050;-81
2022/01/03 02:50:19;;;;;;;6.20;1.40;;;12.20;95.70;;;;;;4933661;29;20752;-81
2022/01/03 02:52:47;;;;;;;5.97;1.40;;;12.20;95.90;;;;;;4933372;29;20042;-82
2022/01/03 02:55:18;;;;;;;4.00;1.23;;;12.20;96.00;;;;;;4932725;29;20057;-82
2022/01/03 02:57:48;;;;;;;5.45;1.55;;;12.20;96.10;;;;;;4933231;29;20407;-82
2022/01/03 03:00:19;;;;;;;5.93;1.30;;;12.10;96.10;;;;;;4932937;29;20083;-81
2022/01/03 03:02:46;;;;;;;3.33;1.10;;;12.10;96.20;;;;;;4932709;29;20064;-81
2022/01/03 03:05:14;;;;;;;5.63;1.33;;;12.10;96.30;;;;;;4932960;29;20058;-81
2022/01/03 03:07:43;;;;;;;5.30;1.48;;;12.10;96.30;;;;;;4933194;29;20054;-81
2022/01/03 03:10:12;;;;;;;7.50;1.73;;;12.10;96.40;;;;;;4932628;29;20050;-82
2022/01/03 03:12:42;;;;;;;6.28;1.38;;;12.00;96.40;;;;;;4932786;29;20074;-82
2022/01/03 03:15:12;;;;;;;6.38;1.30;;;12.00;96.40;;;;;;4932962;29;20055;-81
2022/01/03 03:17:40;;;;;;;5.32;1.35;;;12.00;96.30;;;;;;4932856;29;20047;-82
2022/01/03 03:20:13;;;;;;;6.03;1.30;;;12.00;96.40;;;;;;4932627;29;20138;-81
2022/01/03 03:22:41;;;;;;;5.88;1.65;;;12.00;96.40;;;;;;4932160;29;20047;-81
2022/01/03 03:25:14;;;;;;;5.65;1.30;;;12.00;96.40;;;;;;4932424;29;20490;-82
2022/01/03 03:27:45;;;;;;;5.65;1.35;;;12.00;96.50;;;;;;4933060;29;20418;-82
2022/01/03 03:30:14;;;;;;;5.45;1.48;;;12.00;96.70;;;;;;4932162;29;20475;-81
2022/01/03 03:32:44;;;;;;;3.60;1.30;;;12.00;96.60;;;;;;4934459;29;20397;-81
2022/01/03 03:35:12;;;;;;;4.22;1.30;;;12.00;96.30;;;;;;4933321;29;20056;-82
2022/01/03 03:37:39;;;;;;;4.63;1.55;;;11.90;96.30;;;;;;4931996;29;20488;-81
2022/01/03 03:40:08;;;;;;;5.43;1.70;;;11.90;96.30;;;;;;4932569;29;20048;-81
2022/01/03 03:42:35;;;;;;;6.18;1.30;;;11.90;96.40;;;;;;4932795;29;20132;-82
2022/01/03 03:45:05;;;;;;;7.35;1.70;;;11.90;96.40;;;;;;4932731;29;20070;-82
2022/01/03 03:47:32;;;;;;;7.95;1.38;;;11.90;96.50;;;;;;4932733;29;20054;-81
2022/01/03 03:49:59;;;;;;;4.97;1.33;;;11.90;96.30;;;;;;4932297;29;20059;-81
2022/01/03 03:52:27;;;;;;;4.63;1.38;;;11.90;96.20;;;;;;4932459;29;20051;-82
2022/01/03 03:54:54;;;;;;;5.78;1.42;;;11.90;96.20;;;;;;4932874;29;20058;-82
2022/01/03 03:57:21;;;;;;;5.63;1.10;;;11.80;96.00;;;;;;4932262;29;20877;-82
2022/01/03 03:59:48;;;;;;;7.97;1.60;;;11.80;96.00;;;;;;4932471;29;20139;-82
2022/01/03 04:02:16;;;;;;;5.10;1.52;;;11.80;96.00;;;;;;4932388;29;20074;-82
2022/01/03 04:04:44;;;;;;;5.22;1.13;;;11.80;96.00;;;;;;4931171;29;20416;-82
2022/01/03 04:07:11;;;;;;;7.22;1.55;;;11.80;95.90;;;;;;4932070;29;20053;-82
2022/01/03 04:09:38;;;;;;;7.13;1.48;;;11.80;96.00;;;;;;4932208;29;20441;-81
2022/01/03 04:12:05;;;;;;;4.60;1.50;;;11.80;95.90;;;;;;4932643;29;20055;-81
2022/01/03 04:14:32;;;;;;;5.00;1.58;;;11.80;95.90;;;;;;4932063;29;20046;-82
2022/01/03 04:16:59;;;;;;;5.97;1.50;;;11.70;95.90;;;;;;4932147;29;20051;-81
2022/01/03 04:19:28;;;;;;;6.68;1.33;;;11.70;95.90;;;;;;4931273;29;20043;-82
2022/01/03 04:21:55;;;;;;;5.60;1.27;;;11.70;95.90;;;;;;4932055;29;20054;-82
2022/01/03 04:24:22;;;;;;;4.38;1.25;;;11.70;96.00;;;;;;4931557;29;20381;-82
2022/01/03 04:26:50;;;;;;;5.20;1.25;;;11.70;96.00;;;;;;4932193;29;20071;-82
2022/01/03 04:29:17;;;;;;;6.88;1.50;;;11.70;96.00;;;;;;4932033;29;20374;-82
2022/01/03 04:31:44;;;;;;;5.65;1.55;;;11.70;96.00;;;;;;4932168;29;20055;-82
2022/01/03 04:34:13;;;;;;;7.78;1.50;;;11.70;96.00;;;;;;4931096;29;20074;-81
2022/01/03 04:36:42;;;;;;;5.70;1.30;;;11.70;96.20;;;;;;4932291;29;20111;-81
2022/01/03 04:39:09;;;;;;;7.68;1.20;;;11.70;96.00;;;;;;4931663;29;20048;-81
2022/01/03 04:41:36;;;;;;;5.85;1.20;;;11.60;95.90;;;;;;4932062;29;20050;-81
2022/01/03 04:44:06;;;;;;;6.63;1.50;;;11.60;95.90;;;;;;4931610;29;20409;-81
2022/01/03 04:46:34;;;;;;;5.72;1.45;;;11.60;95.90;;;;;;4931648;29;20048;-81
2022/01/03 04:49:02;;;;;;;6.60;1.40;;;11.50;96.00;;;;;;4932286;29;20056;-80
2022/01/03 04:51:29;;;;;;;7.25;1.58;;;11.60;96.00;;;;;;4930934;29;20039;-81
2022/01/03 04:53:58;;;;;;;5.80;1.45;;;11.50;96.00;;;;;;4931810;29;20127;-82
2022/01/03 04:56:29;;;;;;;5.63;1.35;;;11.50;96.10;;;;;;4931604;29;20405;-81
2022/01/03 04:58:57;;;;;;;7.78;1.55;;;11.50;96.10;;;;;;4931971;29;20047;-82
2022/01/03 05:01:24;;;;;;;7.15;1.67;;;11.50;96.10;;;;;;4931654;29;20056;-81
2022/01/03 05:03:52;;;;;;;3.63;1.27;;;11.50;96.10;;;;;;4931596;29;20052;-81
2022/01/03 05:06:20;;;;;;;6.07;1.50;;;11.50;96.00;;;;;;4931492;29;20162;-81
2022/01/03 05:08:48;;;;;;;7.65;1.27;;;11.50;96.00;;;;;;4931631;29;20047;-81
2022/01/03 05:11:16;;;;;;;5.88;1.40;;;11.50;96.00;;;;;;4931264;29;20054;-81
2022/01/03 05:13:43;;;;;;;6.95;1.40;;;11.50;95.80;;;;;;4931361;29;20413;-81
2022/01/03 05:16:11;;;;;;;5.85;1.50;;;11.50;95.90;;;;;;4931811;29;20433;-81
2022/01/03 05:18:38;;;;;;;6.60;1.88;;;11.50;95.80;;;;;;4931912;29;20075;-81
2022/01/03 05:21:05;;;;;;;6.53;1.45;;;11.50;95.80;;;;;;4931412;29;20051;-80
2022/01/03 05:23:32;;;;;;;4.63;1.48;;;11.50;95.80;;;;;;4931495;29;20052;-81
2022/01/03 05:25:59;;;;;;;7.03;1.73;;;11.50;95.70;;;;;;4931085;29;20051;-81
2022/01/03 05:28:28;;;;;;;6.82;1.48;;;11.50;95.60;;;;;;4931155;29;20054;-81
2022/01/03 05:30:55;;;;;;;6.25;1.30;;;11.50;95.60;;;;;;4931687;29;20150;-81
2022/01/03 05:33:22;;;;;;;6.70;1.30;;;11.50;95.70;;;;;;4931532;29;20047;-81
2022/01/03 05:35:49;;;;;;;5.65;1.35;;;11.50;95.70;;;;;;4931394;29;20069;-82
2022/01/03 05:38:16;;;;;;;10.55;2.08;;;11.40;95.70;;;;;;4930987;29;20048;-83
2022/01/03 05:40:44;;;;;;;6.78;1.40;;;11.40;95.70;;;;;;4930421;29;20039;-83
2022/01/03 05:43:12;;;;;;;5.60;1.13;;;11.40;95.70;;;;;;4930670;29;20044;-83
2022/01/03 05:45:40;;;;;;;5.78;1.27;;;11.40;95.70;;;;;;4934197;29;20413;-83
2022/01/03 05:48:07;;;;;;;8.07;1.60;;;11.40;95.80;;;;;;4934540;29;20047;-82
2022/01/03 05:50:34;;;;;;;5.82;1.38;;;11.40;95.70;;;;;;4935051;29;20047;-83
2022/01/03 05:53:01;;;;;;;5.53;1.48;;;11.40;95.80;;;;;;4934521;29;20390;-83
2022/01/03 05:55:29;;;;;;;7.20;1.80;;;11.30;95.80;;;;;;4934695;29;20047;-83
2022/01/03 05:57:56;;;;;;;6.88;1.65;;;11.30;95.80;;;;;;4933911;29;20480;-83
2022/01/03 06:00:25;;;;;;;5.28;1.10;;;11.30;95.80;;;;;;4933447;29;20379;-82
2022/01/03 06:02:56;;;;;;;4.93;1.20;;;11.20;95.90;;;;;;4934197;29;20131;-83
2022/01/03 06:05:40;;;;;;;4.95;1.30;;;11.20;95.90;;;;;;4934197;29;20055;-83
2022/01/03 06:08:09;;;;;;;8.57;1.60;;;11.20;95.90;;;;;;4934505;29;20398;-82
2022/01/03 06:10:41;;;;;;;6.18;1.55;;;11.20;96.20;;;;;;4933941;29;20043;-82
2022/01/03 06:13:09;;;;;;;7.07;1.23;;;11.20;95.90;;;;;;4934256;29;20051;-84
2022/01/03 06:15:38;;;;;;;7.68;1.58;;;11.20;95.90;;;;;;4934250;29;20131;-83
2022/01/03 06:18:10;;;;;;;4.60;1.30;;;11.20;95.90;;;;;;4934082;29;20079;-83
2022/01/03 06:20:39;;;;;;;7.78;1.65;;;11.20;95.90;;;;;;4934156;29;20095;-83
2022/01/03 06:23:06;;;;;;;5.82;1.52;;;11.20;95.80;;;;;;4933348;29;20055;-81
2022/01/03 06:25:33;;;;;;;5.90;1.42;;;11.20;95.80;;;;;;4933740;29;20048;-83
2022/01/03 06:28:00;;;;;;;6.82;1.38;;;11.20;95.80;;;;;;4934060;29;20047;-83
2022/01/03 06:30:27;;;;;;;11.00;1.60;;;11.20;95.70;;;;;;4933826;29;20044;-84
2022/01/03 06:32:54;;;;;;;6.82;1.30;;;11.20;96.00;;;;;;4933989;29;20500;-83
2022/01/03 06:35:26;;;;;;;7.00;1.40;;;11.10;95.90;;;;;;4933593;29;20086;-83
2022/01/03 06:37:53;;;;;;;7.57;1.30;;;11.20;95.70;;;;;;4933974;29;20047;-83
2022/01/03 06:40:20;;;;;;;7.65;1.50;;;11.20;95.70;;;;;;4933085;29;20146;-83
2022/01/03 06:42:48;;;;;;;6.78;1.95;;;11.20;95.70;;;;;;4932135;29;20055;-84
2022/01/03 06:45:16;;;;;;;7.15;1.65;;;11.20;95.70;;;;;;4933627;29;20130;-84
2022/01/03 06:47:43;;;;;;;6.43;1.63;;;11.20;95.80;;;;;;4934038;29;20465;-85
2022/01/03 06:50:11;;;;;;;5.00;1.33;;;11.20;96.10;;;;;;4933610;29;20054;-86
2022/01/03 06:52:40;;;;;;;6.97;1.70;;;11.20;95.90;;;;;;4933742;29;20048;-85
2022/01/03 06:55:10;;;;;;;6.47;1.38;;;11.20;95.90;;;;;;4933264;29;20048;-84
2022/01/03 06:57:37;;;;;;;6.50;1.50;;;11.10;95.90;;;;;;4933012;29;20043;-84
2022/01/03 07:00:06;;;;;;;7.47;1.50;;;11.10;96.00;;;;;;4933297;29;20056;-84
2022/01/03 07:02:34;;;;;;;8.05;1.98;;;11.10;96.00;;;;;;4933465;29;20051;-85
2022/01/03 07:05:01;;;;;;;7.15;1.42;;;11.10;96.10;;;;;;4932952;29;20138;-85
2022/01/03 07:07:28;;;;;;;6.40;1.52;;;11.10;96.10;;;;;;4933255;29;20048;-82
2022/01/03 07:09:57;;;;;;;6.68;1.63;;;11.10;96.20;;;;;;4933285;29;20054;-83
2022/01/03 07:12:24;;;;;;;6.28;1.48;;;11.10;96.30;;;;;;4933487;29;20767;-84
2022/01/03 07:20:26;;;;;;;6.25;1.65;;;11.00;96.50;;;;;;4933066;29;20059;-85
2022/01/03 07:22:54;;;;;;;5.60;1.45;;;11.00;96.60;;;;;;4933404;29;20543;-84
2022/01/03 07:25:22;;;;;;;5.85;1.30;;;11.00;96.70;;;;;;4932590;29;20828;-82
2022/01/03 07:27:49;;;;;;;9.07;1.40;;;11.00;96.80;;;;;;4932690;29;20054;-84
2022/01/03 07:30:16;;;;;;;6.93;1.25;;;11.00;96.80;;;;;;4932762;29;20397;-84
2022/01/03 07:32:44;;;;;;;5.53;1.20;;;11.00;96.80;;;;;;4932857;29;20044;-85
2022/01/03 07:35:16;;;;;;;4.35;1.13;;;11.00;96.80;;;;;;4933257;29;20061;-83
2022/01/03 07:37:43;;;;;;;5.30;1.42;;;11.00;96.80;;;;;;4934529;29;20135;-82
2022/01/03 07:40:11;;;;;;;5.95;1.55;;;11.00;96.80;;;;;;4932670;29;20405;-81
2022/01/03 07:42:42;;;;;;;8.32;1.70;;;11.00;96.80;;;;;;4932652;29;20058;-81
2022/01/03 07:45:10;;;;;;;7.32;1.27;;;11.00;96.80;;;;;;4932664;29;20048;-81
2022/01/03 07:47:37;;;;;;;8.45;1.50;;;11.00;96.80;;;;;;4927943;29;20045;-81
2022/01/03 07:50:06;;;;;;;8.27;1.50;;;11.00;96.80;;;;;;4927980;29;20095;-80
2022/01/03 07:52:34;;;;;;;6.10;1.40;;;11.10;96.70;;;;;;4932627;29;20382;-82
2022/01/03 07:55:03;;;;;;;7.82;1.45;;;11.00;96.60;;;;;;4925800;29;20052;-81
2022/01/03 07:57:31;;;;;;;5.82;1.52;;;11.10;96.60;;;;;;4918247;29;20043;-80
2022/01/03 07:59:59;;;;;;;6.78;1.35;;;11.00;96.60;;;;;;4924717;29;20147;-81
2022/01/03 08:02:28;;;;;;;6.28;1.80;;;11.10;96.50;;;;;;4932746;29;20413;-81
2022/01/03 08:04:55;;;;;;;6.35;1.70;;;11.10;96.40;;;;;;4932337;29;20134;-82
2022/01/03 08:07:23;;;;;;;7.45;1.70;;;11.10;96.40;;;;;;4932220;29;20047;-81
2022/01/03 08:09:50;;;;;;;7.40;1.92;;;11.10;96.30;;;;;;4932524;29;20043;-80
2022/01/03 08:12:18;;;;;;;6.18;1.30;;;11.10;96.20;;;;;;4931500;29;20064;-81
2022/01/03 08:14:45;;;;;;;5.55;1.50;;;11.20;96.10;;;;;;4924519;29;20040;-81
2022/01/03 08:17:13;;;;;;;6.25;1.48;;;11.20;96.20;;;;;;4923363;29;20592;-80
2022/01/03 08:19:41;;;;;;;5.80;1.30;;;11.20;96.10;;;;;;4924663;29;20044;-81
2022/01/03 08:22:08;;;;;;;4.22;1.38;;;11.20;96.00;;;;;;4919929;29;20099;-81
2022/01/03 08:24:35;;;;;;;6.47;1.27;;;11.20;96.00;;;;;;4924705;29;20047;-81
2022/01/03 08:27:02;;;;;;;8.77;2.13;;;11.30;95.90;;;;;;4922692;29;20070;-80
2022/01/03 08:29:30;;;;;;;7.55;1.58;;;11.30;95.90;;;;;;4921830;29;20139;-83
2022/01/03 08:31:57;;;;;;;6.75;1.60;;;11.30;95.60;;;;;;4929376;29;20095;-82
2022/01/03 08:34:26;;;;;;;7.47;1.40;;;11.30;95.80;;;;;;4931559;29;20052;-82
2022/01/03 08:36:53;;;;;;;6.88;1.60;;;11.30;95.70;;;;;;4932299;29;20044;-82
2022/01/03 08:39:20;;;;;;;4.63;1.20;;;11.40;95.30;;;;;;4931859;29;20131;-81
2022/01/03 08:41:47;;;;;;;6.75;1.40;;;11.40;95.20;;;;;;4931954;29;20126;-84
2022/01/03 08:44:18;;;;;;;6.45;2.00;;;11.40;95.10;;;;;;4932013;29;20048;-89
2022/01/03 08:46:50;;;;;;;5.40;1.42;;;11.50;95.00;;;;;;4933683;29;20043;-89
2022/01/03 08:49:18;;;;;;;7.03;1.60;;;11.50;94.90;;;;;;4933517;29;20047;-82
2022/01/03 08:51:46;;;;;;;5.90;1.15;;;11.50;94.90;;;;;;4931172;29;20075;-81
2022/01/03 08:54:14;;;;;;;6.03;1.75;;;11.50;94.80;;;;;;4932122;29;20143;-81
2022/01/03 08:56:41;;;;;;;5.30;1.33;;;11.50;94.60;;;;;;4932536;29;20409;-81
2022/01/03 08:59:08;;;;;;;5.18;1.13;;;11.50;94.60;;;;;;4931775;29;20103;-82
2022/01/03 09:01:36;;;;;;;7.00;1.65;;;11.60;94.60;;;;;;4931893;29;20075;-82
2022/01/03 09:04:03;;;;;;;7.00;1.25;;;11.60;94.50;;;;;;4932981;29;20055;-80
2022/01/03 09:06:30;;;;;;;5.20;1.40;;;11.60;94.70;;;;;;4928027;29;20135;-82
2022/01/03 09:08:58;;;;;;;6.97;1.23;;;11.60;94.50;;;;;;4929507;29;20047;-81
2022/01/03 09:11:27;;;;;;;6.15;1.30;;;11.70;94.20;;;;;;4923192;29;20051;-81
2022/01/03 09:13:54;;;;;;;6.32;1.55;;;11.70;94.40;;;;;;4925218;29;20465;-80
2022/01/03 09:16:21;;;;;;;4.47;1.48;;;11.70;94.20;;;;;;4928183;29;20134;-82
2022/01/03 09:18:48;;;;;;;6.55;1.30;;;11.70;94.30;;;;;;4926646;29;20130;-80
2022/01/03 09:21:16;;;;;;;7.53;1.42;;;11.80;94.20;;;;;;4933502;29;20078;-80
2022/01/03 09:23:48;;;;;;;5.97;1.20;;;11.80;94.10;;;;;;4927826;29;20047;-79
2022/01/03 09:29:18;;;;;;;6.57;1.30;;;11.80;94.20;;;;;;4874315;29;20407;-82
2022/01/03 09:31:45;;;;;;;6.07;1.50;;;11.90;93.80;;;;;;4876369;29;20490;-80
2022/01/03 09:34:12;;;;;;;4.75;1.23;;;11.80;93.90;;;;;;4896618;29;20051;-81
2022/01/03 09:39:14;;;;;;;7.90;1.30;;;11.80;93.90;;;;;;4543358;23;20094;-76
2022/01/03 09:41:54;;;;;;;8.40;1.33;;;11.80;94.00;;;;;;4937880;29;20150;-76
2022/01/03 09:44:23;;;;;;;4.47;1.42;;;11.80;94.10;;;;;;4939990;28;20828;-74
2022/01/03 09:46:51;;;;;;;5.25;1.63;;;11.80;94.10;;;;;;4938116;29;20151;-76
2022/01/03 09:49:19;;;;;;;5.75;1.45;;;11.90;94.20;;;;;;4927398;29;20090;-78
2022/01/03 09:51:47;;;;;;;5.88;1.35;;;11.90;94.20;;;;;;4919649;29;20140;-80
2022/01/03 09:54:15;;;;;;;5.65;1.40;;;11.80;94.30;;;;;;4930304;29;20076;-78
2022/01/03 09:56:45;;;;;;;5.78;1.48;;;11.90;94.40;;;;;;4917381;29;20214;-79
2022/01/03 09:59:15;;;;;;;8.82;1.55;;;11.90;94.50;;;;;;4927147;29;20056;-78
2022/01/03 10:01:42;;;;;;;4.45;1.10;;;11.90;94.40;;;;;;4936345;29;20058;-75
2022/01/03 10:04:11;;;;;;;4.70;1.20;;;11.90;94.50;;;;;;4924518;29;20126;-76
2022/01/03 10:06:38;;;;;;;7.43;1.33;;;11.90;94.50;;;;;;4921411;29;20044;-77
2022/01/03 10:09:06;;;;;;;7.13;1.40;;;11.90;94.50;;;;;;4925767;29;20054;-77
2022/01/03 10:11:33;;;;;;;4.97;1.33;;;11.90;94.50;;;;;;4939362;29;20126;-77
2022/01/03 10:14:02;;;;;;;6.80;1.55;;;11.90;94.50;;;;;;4935230;29;20073;-75
2022/01/03 10:16:30;;;;;;;5.63;1.33;;;12.00;94.50;;;;;;4917206;29;20056;-78
2022/01/03 10:18:58;;;;;;;4.90;1.40;;;12.00;94.50;;;;;;4916964;29;20044;-78
2022/01/03 10:21:38;;;;;;;6.03;1.55;;;12.00;94.10;;;;;;4928958;29;20584;-75
2022/01/03 10:24:07;;;;;;;5.55;1.20;;;12.00;94.00;;;;;;4935497;29;20477;-76
2022/01/03 10:26:36;;;;;;;4.47;1.00;;;12.10;93.80;;;;;;4935437;29;20051;-76
2022/01/03 10:29:16;;;;;;;6.95;1.13;;;12.10;93.70;;;;;;4935897;29;20048;-78
2022/01/03 10:31:45;;;;;;;6.05;1.52;;;12.10;93.60;;;;;;4932560;29;20040;-77
2022/01/03 10:34:15;;;;;;;5.57;1.50;;;12.10;93.50;;;;;;4926503;29;20142;-79
2022/01/03 10:36:46;;;;;;;4.97;1.30;;;12.10;93.40;;;;;;4919767;29;20050;-79
2022/01/03 10:39:17;;;;;;;6.82;1.60;;;12.10;93.40;;;;;;4917428;29;20060;-79
2022/01/03 10:41:45;;;;;;;5.65;1.30;;;12.20;93.30;;;;;;4920907;29;20123;-79
2022/01/03 10:44:29;;;;;;;5.70;1.20;;;12.10;93.30;;;;;;4921344;29;20104;-78
2022/01/03 10:46:57;;;;;;;5.93;1.58;;;12.10;93.30;;;;;;4921841;29;21196;-78
2022/01/03 10:49:27;;;;;;;4.75;1.33;;;12.20;93.50;;;;;;4941017;29;20071;-76
2022/01/03 10:52:13;;;;;;;7.25;1.58;;;12.10;93.30;;;;;;4949858;29;20047;-77
2022/01/03 10:54:40;;;;;;;4.53;1.30;;;12.10;93.30;;;;;;4936160;29;20063;-73
2022/01/03 10:57:08;;;;;;;6.18;1.33;;;12.20;93.20;;;;;;4942343;29;20047;-76
2022/01/03 10:59:36;;;;;;;4.90;1.17;;;12.20;93.40;;;;;;4942193;29;20043;-76
2022/01/03 11:02:07;;;;;;;8.88;3.88;;;12.20;93.10;;;;;;4942775;29;20098;-77
2022/01/03 11:04:42;;;;;;;19.05;7.63;;;12.20;93.20;;;;;;4932690;29;20051;-79
2022/01/03 11:13:12;;;;;;;7.05;1.42;;;12.20;93.20;;;;;;4937913;29;20102;-75
2022/01/03 11:15:43;;;;;;;6.53;1.55;;;12.20;93.20;;;;;;4935826;29;20403;-74
2022/01/03 11:18:16;;;;;;;5.88;1.30;;;12.20;93.40;;;;;;4943277;29;20077;-74
2022/01/03 11:20:46;;;;;;;6.82;1.35;;;12.20;93.50;;;;;;4941437;29;20130;-73
2022/01/03 11:23:22;;;;;;;7.15;1.67;;;12.20;93.60;;;;;;4942792;29;20051;-75
2022/01/03 11:25:52;;;;;;;4.20;1.33;;;12.20;93.60;;;;;;4941049;29;20050;-73
2022/01/03 11:28:19;;;;;;;6.68;1.58;;;12.20;93.70;;;;;;4942593;29;20390;-74
2022/01/03 11:30:49;;;;;;;5.32;1.40;;;12.20;93.70;;;;;;4944274;28;20134;-76
2022/01/03 11:33:16;;;;;;;5.38;1.48;;;12.20;93.70;;;;;;4942461;29;20423;-76
2022/01/03 11:35:48;;;;;;;5.45;1.30;;;12.20;93.60;;;;;;4928712;29;20131;-77
2022/01/03 11:38:20;;;;;;;6.03;1.30;;;12.20;93.60;;;;;;4922936;29;20487;-77
2022/01/03 11:40:47;;;;;;;4.95;1.20;;;12.30;93.60;;;;;;4926445;29;20040;-79
2022/01/03 11:43:16;;;;;;;4.32;1.20;;;12.30;93.60;;;;;;4923199;29;20131;-78
2022/01/03 11:45:43;;;;;;;5.50;1.70;;;12.20;93.50;;;;;;4915567;29;20044;-79
2022/01/03 11:48:13;;;;;;;6.03;1.50;;;12.30;93.30;;;;;;4919264;29;20405;-78
2022/01/03 11:50:42;;;;;;;7.68;1.98;;;12.30;93.30;;;;;;4914850;29;20048;-77
2022/01/03 11:53:10;;;;;;;6.47;1.33;;;12.30;93.30;;;;;;4915504;29;20048;-79
2022/01/03 11:55:40;;;;;;;7.60;2.13;;;12.20;93.20;;;;;;4916191;29;20045;-79
2022/01/03 11:58:28;;;;;;;5.85;1.65;;;12.30;93.20;;;;;;4923167;29;20465;-77
2022/01/03 12:03:57;;;;;;;5.68;1.50;;;12.30;93.10;;;;;;4940656;29;20118;-75
2022/01/03 12:06:33;;;;;;;6.00;1.40;;;12.30;92.40;;;;;;4935714;29;20051;-74
2022/01/03 12:09:05;;;;;;;5.65;1.20;;;12.30;92.40;;;;;;4928581;29;20111;-75
2022/01/03 12:11:33;;;;;;;8.00;1.63;;;12.40;92.10;;;;;;4917418;29;20414;-78
2022/01/03 12:14:10;;;;;;;7.47;1.35;;;12.40;91.80;;;;;;4916199;29;20513;-79
2022/01/03 12:16:47;;;;;;;5.97;1.30;;;12.30;91.60;;;;;;4917216;29;20047;-77
2022/01/03 12:19:29;;;;;;;7.60;1.50;;;12.40;91.40;;;;;;4917816;29;20119;-77
2022/01/03 12:22:00;;;;;;;4.55;1.30;;;12.30;91.00;;;;;;4914958;29;20123;-75
2022/01/03 12:24:46;;;;;;;5.18;1.20;;;12.30;91.00;;;;;;4940823;29;20071;-77
2022/01/03 12:27:40;;;;;;;5.75;1.60;;;12.40;90.90;;;;;;4934959;29;20050;-76
2022/01/03 12:30:25;;;;;;;5.65;1.17;;;12.40;90.70;;;;;;4923414;29;20486;-76
2022/01/03 12:33:25;;;;;;;4.28;1.10;;;12.40;90.80;;;;;;4926653;29;20055;-76
2022/01/03 12:36:19;;;;;;;5.53;1.40;;;12.40;90.60;;;;;;4920709;29;20051;-77
2022/01/03 12:39:07;;;;;;;4.18;1.00;;;12.40;90.60;;;;;;4926034;29;20143;-76
2022/01/03 12:41:43;;;;;;;3.22;1.17;;;12.40;90.50;;;;;;4926768;29;20040;-79
2022/01/03 12:44:12;;;;;;;6.90;1.38;;;12.30;90.30;;;;;;4915136;29;20051;-77
2022/01/03 12:46:39;;;;;;;4.30;1.17;;;12.30;90.30;;;;;;4922281;29;20145;-80
2022/01/03 12:49:30;;;;;;;6.18;1.60;;;12.30;90.20;;;;;;4930097;29;20074;-79
2022/01/03 12:52:18;;;;;;;6.28;1.15;;;12.30;90.20;;;;;;4922886;29;20707;-77
2022/01/03 12:54:45;;;;;;;4.40;1.42;;;12.40;90.10;;;;;;4934157;29;20043;-77
2022/01/03 12:57:18;;;;;;;4.97;1.10;;;12.40;90.00;;;;;;4942654;29;20055;-79
2022/01/03 12:59:45;;;;;;;5.28;1.23;;;12.40;89.70;;;;;;4931080;29;20047;-77
2022/01/03 13:02:32;;;;;;;3.88;1.40;;;12.40;89.60;;;;;;4939698;29;20142;-75
2022/01/03 13:05:03;;;;;;;4.85;1.05;;;12.40;89.50;;;;;;4939558;29;20151;-75
2022/01/03 13:07:31;;;;;;;3.25;1.05;;;12.40;89.30;;;;;;4929518;29;20055;-74
2022/01/03 13:09:58;;;;;;;4.35;1.13;;;12.40;89.30;;;;;;4948808;29;20521;-77
2022/01/03 13:12:25;;;;;;;4.97;1.30;;;12.50;89.10;;;;;;4937473;29;20043;-78
2022/01/03 13:15:02;;;;;;;4.82;1.25;;;12.50;88.90;;;;;;4937579;29;20135;-79
2022/01/03 13:17:29;;;;;;;5.03;1.40;;;12.50;88.80;;;;;;4926402;29;20059;-79
2022/01/03 13:20:01;;;;;;;5.82;1.60;;;12.50;88.40;;;;;;4945487;29;20485;-79
2022/01/03 13:22:29;;;;;;;6.03;1.50;;;12.50;88.40;;;;;;4939359;29;20048;-77
2022/01/03 13:24:59;;;;;;;5.20;1.63;;;12.50;88.40;;;;;;4939657;29;20461;-78